createdAt,value
2018-09-11T00:02:10.751Z,2.87
2018-09-11T00:04:38.587Z,3.00
2018-09-11T00:07:06.436Z,2.90
2018-09-11T00:09:34.262Z,3.00
2018-09-11T00:12:02.102Z,3.00
2018-09-11T00:14:29.933Z,3.17
2018-09-11T00:16:57.766Z,2.90
2018-09-11T00:19:26.011Z,2.80
2018-09-11T00:21:54.014Z,2.93
2018-09-11T00:24:21.859Z,2.80
2018-09-11T00:26:49.688Z,3.30
2018-09-11T00:29:17.524Z,3.13
2018-09-11T00:31:45.436Z,3.37
2018-09-11T00:34:13.257Z,3.03
2018-09-11T00:36:41.163Z,2.80
2018-09-11T00:39:09.372Z,3.10
2018-09-11T00:41:37.199Z,3.80
2018-09-11T00:44:05.346Z,2.90
2018-09-11T00:46:33.315Z,3.30
2018-09-11T00:49:01.141Z,2.80
2018-09-11T00:51:29.019Z,2.80
2018-09-11T00:53:56.891Z,3.00
2018-09-11T00:56:24.737Z,3.00
2018-09-11T00:58:52.952Z,3.70
2018-09-11T01:01:20.791Z,2.90
2018-09-11T01:03:48.638Z,3.47
2018-09-11T01:06:16.488Z,3.50
2018-09-11T01:08:44.315Z,3.60
2018-09-11T01:11:12.135Z,3.53
2018-09-11T01:13:40.008Z,3.77
2018-09-11T01:16:09.071Z,4.27
2018-09-11T01:18:36.902Z,4.83
2018-09-11T01:21:05.064Z,5.50
2018-09-11T01:23:33.630Z,5.50
2018-09-11T01:26:01.473Z,5.00
2018-09-11T01:28:29.303Z,5.30
2018-09-11T01:30:57.150Z,5.13
2018-09-11T01:33:24.963Z,5.00
2018-09-11T01:35:52.851Z,5.33
2018-09-11T01:38:20.852Z,5.03
2018-09-11T01:40:48.675Z,5.10
2018-09-11T01:43:16.506Z,5.20
2018-09-11T01:45:44.336Z,5.57
2018-09-11T01:48:12.182Z,5.70
2018-09-11T01:50:40.017Z,5.63
2018-09-11T01:53:07.836Z,4.97
2018-09-11T01:55:35.822Z,5.70
2018-09-11T01:58:03.655Z,5.07
2018-09-11T02:00:31.492Z,4.80
2018-09-11T02:02:59.307Z,4.63
2018-09-11T02:05:27.125Z,4.57
2018-09-11T02:07:54.950Z,4.67
2018-09-11T02:10:22.801Z,4.67
2018-09-11T02:12:50.640Z,4.87
2018-09-11T02:15:18.560Z,5.67
2018-09-11T02:17:46.482Z,6.03
2018-09-11T02:20:14.435Z,5.77
2018-09-11T02:22:42.265Z,5.03
2018-09-11T02:25:10.118Z,4.93
2018-09-11T02:27:37.995Z,5.60
2018-09-11T02:30:05.852Z,5.47
2018-09-11T02:32:33.691Z,5.60
2018-09-11T02:35:01.518Z,5.03
2018-09-11T02:37:29.559Z,5.03
2018-09-11T02:39:57.398Z,5.30
2018-09-11T02:42:25.216Z,5.50
2018-09-11T02:44:53.072Z,4.90
2018-09-11T02:47:20.883Z,5.33
2018-09-11T02:49:48.718Z,5.13
2018-09-11T02:52:16.580Z,4.93
2018-09-11T02:54:44.526Z,4.93
2018-09-11T02:57:12.352Z,5.07
2018-09-11T02:59:40.216Z,4.23
2018-09-11T03:02:08.048Z,4.37
2018-09-11T03:04:35.877Z,5.00
2018-09-11T03:07:03.742Z,4.60
2018-09-11T03:09:31.592Z,5.40
2018-09-11T03:11:59.451Z,5.70
2018-09-11T03:14:27.279Z,5.10
2018-09-11T03:16:55.136Z,4.73
2018-09-11T03:19:22.971Z,5.17
2018-09-11T03:21:50.807Z,4.27
2018-09-11T03:24:18.702Z,4.90
2018-09-11T03:26:46.551Z,4.60
2018-09-11T03:29:14.373Z,4.70
2018-09-11T03:31:42.520Z,4.87
2018-09-11T03:34:10.356Z,4.97
2018-09-11T03:36:38.194Z,4.40
2018-09-11T03:39:07.293Z,5.00
2018-09-11T03:41:35.130Z,5.10
2018-09-11T03:44:02.994Z,5.07
2018-09-11T03:46:30.825Z,4.97
2018-09-11T03:48:58.747Z,4.20
2018-09-11T03:51:26.582Z,4.00
2018-09-11T03:53:54.391Z,4.57
2018-09-11T03:56:22.207Z,5.23
2018-09-11T03:58:50.042Z,5.37
2018-09-11T04:01:17.868Z,5.53
2018-09-11T04:03:45.889Z,4.73
2018-09-11T04:06:13.733Z,5.57
2018-09-11T04:08:41.595Z,6.27
2018-09-11T04:11:09.417Z,5.97
2018-09-11T04:13:37.239Z,6.47
2018-09-11T04:16:05.091Z,6.17
2018-09-11T04:18:32.928Z,6.10
2018-09-11T04:21:00.764Z,5.73
2018-09-11T04:23:28.596Z,6.60
2018-09-11T04:25:56.451Z,6.00
2018-09-11T04:28:24.339Z,5.67
2018-09-11T04:30:52.190Z,6.57
2018-09-11T04:33:20.135Z,5.50
2018-09-11T04:35:48.016Z,5.70
2018-09-11T04:38:15.845Z,5.50
2018-09-11T04:40:43.696Z,5.27
2018-09-11T04:43:11.633Z,5.83
2018-09-11T04:45:39.458Z,5.50
2018-09-11T04:48:07.316Z,5.93
2018-09-11T04:50:35.216Z,5.93
2018-09-11T04:53:03.070Z,5.77
2018-09-11T04:55:30.900Z,5.33
2018-09-11T04:57:58.734Z,6.07
2018-09-11T05:00:26.574Z,5.43
2018-09-11T05:02:54.450Z,6.00
2018-09-11T05:05:22.284Z,6.00
2018-09-11T05:07:50.737Z,5.73
2018-09-11T05:10:18.644Z,6.93
2018-09-11T05:12:46.568Z,7.10
2018-09-11T05:15:14.615Z,6.43
2018-09-11T05:17:42.516Z,8.40
2018-09-11T05:20:10.328Z,6.37
2018-09-11T05:22:38.175Z,7.17
2018-09-11T05:25:06.243Z,6.93
2018-09-11T05:27:34.186Z,7.10
2018-09-11T05:30:01.975Z,7.27
2018-09-11T05:32:29.817Z,7.20
2018-09-11T05:34:57.662Z,6.80
2018-09-11T05:37:26.365Z,6.97
2018-09-11T05:39:54.529Z,7.53
2018-09-11T05:42:22.345Z,7.57
2018-09-11T05:44:50.185Z,6.73
2018-09-11T05:47:18.040Z,6.90
2018-09-11T05:49:45.908Z,7.63
2018-09-11T05:52:13.747Z,9.33
2018-09-11T05:54:41.727Z,7.27
2018-09-11T05:57:09.712Z,7.87
2018-09-11T05:59:37.549Z,6.40
2018-09-11T06:02:05.624Z,7.07
2018-09-11T06:04:33.460Z,7.63
2018-09-11T06:07:01.276Z,6.13
2018-09-11T06:09:29.107Z,7.10
2018-09-11T06:11:57.302Z,6.87
2018-09-11T06:14:25.138Z,6.17
2018-09-11T06:16:52.974Z,5.47
2018-09-11T06:19:20.811Z,5.83
2018-09-11T06:21:48.647Z,6.07
2018-09-11T06:24:16.507Z,5.20
2018-09-11T06:26:44.331Z,5.40
2018-09-11T06:29:12.207Z,5.27
2018-09-11T06:31:40.036Z,4.90
2018-09-11T06:34:07.892Z,4.93
2018-09-11T06:36:35.705Z,4.13
2018-09-11T06:39:05.846Z,4.27
2018-09-11T06:41:33.859Z,4.53
2018-09-11T06:44:01.748Z,5.13
2018-09-11T06:46:29.578Z,5.07
2018-09-11T06:48:57.395Z,4.20
2018-09-11T06:51:25.221Z,4.80
2018-09-11T06:53:53.046Z,4.27
2018-09-11T06:56:20.859Z,4.50
2018-09-11T06:58:48.769Z,4.13
2018-09-11T07:01:16.593Z,4.17
2018-09-11T07:03:44.419Z,3.70
2018-09-11T07:06:12.245Z,3.63
2018-09-11T07:08:40.170Z,3.80
2018-09-11T07:11:07.966Z,3.87
2018-09-11T07:13:35.779Z,3.30
2018-09-11T07:16:03.663Z,5.00
2018-09-11T07:18:31.497Z,4.30
2018-09-11T07:20:59.335Z,3.90
2018-09-11T07:23:27.190Z,4.03
2018-09-11T07:25:55.061Z,4.37
2018-09-11T07:28:22.917Z,3.93
2018-09-11T07:30:50.771Z,4.03
2018-09-11T07:33:18.677Z,4.33
2018-09-11T07:35:46.567Z,3.90
2018-09-11T07:38:15.158Z,3.83
2018-09-11T07:40:43.224Z,3.93
2018-09-11T07:43:11.047Z,3.53
2018-09-11T07:45:38.878Z,4.30
2018-09-11T07:48:06.780Z,4.50
2018-09-11T07:50:34.600Z,3.57
2018-09-11T07:53:02.483Z,3.10
2018-09-11T07:55:30.315Z,3.67
2018-09-11T07:57:58.223Z,3.60
2018-09-11T08:00:26.040Z,3.23
2018-09-11T08:02:53.911Z,3.50
2018-09-11T08:05:21.781Z,3.30
2018-09-11T08:07:49.592Z,3.40
2018-09-11T08:10:17.539Z,3.87
2018-09-11T08:12:45.364Z,3.07
2018-09-11T08:15:13.172Z,3.50
2018-09-11T08:17:40.995Z,4.07
2018-09-11T08:20:08.874Z,2.83
2018-09-11T08:22:36.707Z,3.30
2018-09-11T08:25:04.595Z,2.80
2018-09-11T08:27:32.455Z,3.20
2018-09-11T08:30:00.280Z,3.40
2018-09-11T08:32:28.129Z,3.10
2018-09-11T08:34:55.959Z,3.87
2018-09-11T08:37:23.789Z,3.17
2018-09-11T08:39:51.603Z,3.03
2018-09-11T08:42:19.489Z,3.10
2018-09-11T08:44:47.321Z,3.03
2018-09-11T08:47:15.268Z,3.70
2018-09-11T08:49:43.084Z,2.60
2018-09-11T08:52:11.014Z,2.60
2018-09-11T08:54:38.820Z,2.77
2018-09-11T08:57:06.654Z,2.93
2018-09-11T08:59:34.484Z,2.87
2018-09-11T09:02:02.312Z,3.80
2018-09-11T09:04:30.136Z,3.70
2018-09-11T09:06:57.952Z,3.70
2018-09-11T09:09:25.779Z,3.77
2018-09-11T09:11:53.623Z,3.23
2018-09-11T09:14:21.447Z,3.40
2018-09-11T09:16:49.275Z,2.90
2018-09-11T09:19:17.122Z,3.20
2018-09-11T09:21:44.949Z,3.93
2018-09-11T09:24:12.908Z,3.40
2018-09-11T09:26:40.745Z,3.17
2018-09-11T09:29:08.606Z,3.50
2018-09-11T09:31:36.462Z,2.90
2018-09-11T09:34:04.315Z,2.73
2018-09-11T09:36:32.283Z,3.30
2018-09-11T09:39:00.127Z,3.60
2018-09-11T09:41:27.956Z,3.20
2018-09-11T09:43:55.834Z,3.00
2018-09-11T09:46:23.679Z,3.00
2018-09-11T09:48:51.568Z,4.00
2018-09-11T09:51:19.386Z,4.10
2018-09-11T09:53:47.239Z,2.93
2018-09-11T09:56:15.130Z,3.20
2018-09-11T09:58:42.983Z,3.00
2018-09-11T10:01:15.909Z,2.80
2018-09-11T10:03:43.781Z,3.17
2018-09-11T10:06:11.623Z,2.83
2018-09-11T10:08:39.476Z,4.00
2018-09-11T10:11:07.305Z,2.83
2018-09-11T10:13:35.138Z,3.17
2018-09-11T10:16:03.099Z,2.67
2018-09-11T10:18:31.002Z,3.17
2018-09-11T10:20:58.870Z,3.17
2018-09-11T10:23:26.836Z,3.30
2018-09-11T10:25:54.663Z,3.40
2018-09-11T10:28:22.902Z,2.77
2018-09-11T10:30:50.748Z,2.50
2018-09-11T10:33:18.581Z,2.40
2018-09-11T10:35:46.425Z,3.20
2018-09-11T10:38:14.279Z,4.13
2018-09-11T10:40:42.124Z,2.40
2018-09-11T10:43:09.952Z,2.50
2018-09-11T10:45:37.810Z,3.30
2018-09-11T10:48:05.707Z,3.67
2018-09-11T10:50:33.583Z,2.97
2018-09-11T10:53:01.416Z,3.20
2018-09-11T10:55:29.294Z,3.03
2018-09-11T10:57:57.143Z,3.10
2018-09-11T11:00:25.349Z,2.70
2018-09-11T11:02:53.161Z,2.90
2018-09-11T11:05:21.006Z,2.90
2018-09-11T11:07:48.844Z,2.70
2018-09-11T11:10:16.679Z,3.97
2018-09-11T11:12:44.507Z,2.73
2018-09-11T11:15:12.322Z,3.50
2018-09-11T11:17:40.151Z,2.80
2018-09-11T11:20:07.993Z,2.83
2018-09-11T11:22:35.831Z,2.73
2018-09-11T11:25:03.702Z,3.47
2018-09-11T11:27:31.729Z,3.20
2018-09-11T11:29:59.575Z,2.67
2018-09-11T11:32:28.101Z,3.47
2018-09-11T11:34:56.066Z,3.57
2018-09-11T11:37:24.031Z,8.97
2018-09-11T11:39:51.812Z,3.53
2018-09-11T11:42:19.722Z,3.13
2018-09-11T11:44:47.527Z,3.30
2018-09-11T11:47:15.453Z,3.20
2018-09-11T11:49:43.444Z,2.60
2018-09-11T11:52:11.346Z,3.10
2018-09-11T11:54:39.189Z,2.83
2018-09-11T11:57:07.014Z,2.60
2018-09-11T11:59:34.847Z,2.90
2018-09-11T12:02:02.749Z,3.33
2018-09-11T12:04:30.731Z,3.10
2018-09-11T12:06:58.567Z,3.30
2018-09-11T12:09:26.392Z,2.70
2018-09-11T12:11:54.253Z,2.97
2018-09-11T12:14:22.101Z,3.10
2018-09-11T12:16:49.981Z,2.97
2018-09-11T12:19:17.811Z,2.67
2018-09-11T12:21:45.641Z,2.33
2018-09-11T12:24:13.479Z,2.40
2018-09-11T12:26:41.519Z,2.47
2018-09-11T12:29:09.349Z,2.37
2018-09-11T12:31:37.216Z,2.90
2018-09-11T12:34:05.038Z,2.50
2018-09-11T12:36:32.940Z,2.80
2018-09-11T12:39:01.061Z,2.70
2018-09-11T12:41:28.899Z,3.60
2018-09-11T12:43:56.729Z,2.83
2018-09-11T12:46:24.806Z,2.73
2018-09-11T12:48:52.602Z,2.87
2018-09-11T12:51:20.402Z,2.97
2018-09-11T12:53:48.234Z,2.70
2018-09-11T12:56:16.131Z,2.93
2018-09-11T12:58:43.976Z,3.27
2018-09-11T13:01:11.806Z,2.60
2018-09-11T13:03:39.863Z,3.10
2018-09-11T13:06:07.742Z,2.60
2018-09-11T13:08:35.639Z,2.80
2018-09-11T13:11:03.527Z,2.77
2018-09-11T13:13:31.370Z,2.70
2018-09-11T13:15:59.262Z,3.73
2018-09-11T13:18:27.099Z,2.93
2018-09-11T13:20:54.938Z,2.33
2018-09-11T13:23:22.899Z,3.00
2018-09-11T13:25:50.755Z,2.70
2018-09-11T13:28:18.591Z,2.60
2018-09-11T13:30:46.435Z,3.10
2018-09-11T13:33:14.364Z,2.80
2018-09-11T13:35:42.330Z,2.87
2018-09-11T13:38:10.190Z,2.33
2018-09-11T13:40:38.158Z,2.37
2018-09-11T13:43:06.092Z,3.03
2018-09-11T13:45:33.984Z,2.57
2018-09-11T13:48:01.924Z,2.43
2018-09-11T13:50:29.764Z,2.33
2018-09-11T13:52:57.647Z,2.47
2018-09-11T13:55:25.458Z,3.00
2018-09-11T13:57:53.905Z,2.67
2018-09-11T14:00:21.768Z,2.70
2018-09-11T14:02:49.603Z,2.87
2018-09-11T14:05:17.456Z,3.10
2018-09-11T14:07:45.283Z,2.70
2018-09-11T14:10:13.107Z,2.50
2018-09-11T14:12:41.116Z,3.47
2018-09-11T14:15:08.967Z,2.90
2018-09-11T14:17:36.831Z,2.67
2018-09-11T14:20:05.143Z,2.40
2018-09-11T14:22:32.971Z,2.57
2018-09-11T14:25:00.862Z,2.37
2018-09-11T14:27:28.684Z,2.60
2018-09-11T14:29:56.543Z,2.40
2018-09-11T14:32:24.379Z,2.43
2018-09-11T14:34:52.368Z,6.23
2018-09-11T14:37:20.222Z,2.97
2018-09-11T14:39:48.049Z,2.30
2018-09-11T14:42:15.879Z,2.70
2018-09-11T14:44:43.842Z,3.53
2018-09-11T14:47:11.667Z,3.10
2018-09-11T14:49:39.501Z,2.53
2018-09-11T14:52:07.348Z,2.77
2018-09-11T14:54:35.192Z,2.20
2018-09-11T14:57:03.067Z,2.90
2018-09-11T14:59:30.897Z,2.60
2018-09-11T15:01:58.731Z,2.80
2018-09-11T15:04:26.547Z,2.70
2018-09-11T15:06:54.390Z,2.63
2018-09-11T15:09:22.212Z,2.50
2018-09-11T15:11:50.061Z,3.40
2018-09-11T15:14:17.900Z,2.63
2018-09-11T15:16:45.878Z,2.87
2018-09-11T15:19:13.742Z,2.47
2018-09-11T15:21:41.566Z,3.50
2018-09-11T15:24:09.437Z,2.70
2018-09-11T15:26:37.273Z,2.50
2018-09-11T15:29:05.487Z,2.50
2018-09-11T15:31:33.319Z,2.67
2018-09-11T15:34:01.156Z,2.67
2018-09-11T15:36:29.153Z,2.83
2018-09-11T15:38:57.099Z,2.53
2018-09-11T15:41:24.940Z,2.53
2018-09-11T15:43:52.793Z,3.00
2018-09-11T15:46:20.657Z,2.53
2018-09-11T15:48:49.007Z,3.17
2018-09-11T15:51:16.925Z,3.33
2018-09-11T15:53:44.759Z,3.20
2018-09-11T15:56:12.651Z,2.63
2018-09-11T15:58:40.531Z,2.57
2018-09-11T16:01:08.368Z,3.10
2018-09-11T16:03:36.184Z,2.73
2018-09-11T16:06:04.027Z,2.73
2018-09-11T16:08:32.158Z,3.33
2018-09-11T16:11:00.001Z,2.77
2018-09-11T16:13:27.881Z,3.00
2018-09-11T16:15:55.771Z,2.90
2018-09-11T16:18:23.603Z,2.87
2018-09-11T16:20:51.485Z,3.27
2018-09-11T16:23:19.347Z,2.70
2018-09-11T16:25:47.180Z,2.90
2018-09-11T16:28:15.018Z,2.67
2018-09-11T16:30:42.845Z,3.00
2018-09-11T16:33:10.702Z,2.53
2018-09-11T16:35:38.523Z,2.60
2018-09-11T16:38:06.395Z,2.80
2018-09-11T16:40:34.252Z,2.30
2018-09-11T16:43:02.117Z,2.83
2018-09-11T16:45:30.100Z,2.50
2018-09-11T16:47:57.927Z,2.80
2018-09-11T16:50:25.795Z,3.70
2018-09-11T16:52:54.292Z,3.03
2018-09-11T16:55:22.151Z,3.17
2018-09-11T16:57:50.008Z,2.83
2018-09-11T17:00:17.830Z,2.97
2018-09-11T17:02:45.673Z,2.90
2018-09-11T17:05:13.694Z,3.53
2018-09-11T17:07:41.595Z,2.60
2018-09-11T17:10:09.459Z,3.33
2018-09-11T17:12:37.323Z,3.23
2018-09-11T17:15:05.215Z,3.50
2018-09-11T17:17:33.142Z,3.50
2018-09-11T17:20:01.001Z,3.47
2018-09-11T17:22:28.858Z,3.03
2018-09-11T17:24:56.738Z,3.27
2018-09-11T17:27:24.568Z,2.63
2018-09-11T17:29:52.489Z,2.90
2018-09-11T17:32:20.353Z,2.90
2018-09-11T17:34:48.164Z,2.83
2018-09-11T17:37:16.096Z,2.90
2018-09-11T17:39:43.954Z,3.47
2018-09-11T17:42:11.902Z,2.60
2018-09-11T17:44:39.722Z,2.77
2018-09-11T17:47:07.568Z,3.17
2018-09-11T17:49:35.371Z,3.20
2018-09-11T17:52:03.235Z,3.47
2018-09-11T17:54:31.083Z,3.63
2018-09-11T17:56:58.966Z,4.07
2018-09-11T17:59:26.780Z,3.53
2018-09-11T18:01:54.614Z,3.73
2018-09-11T18:04:22.435Z,3.47
2018-09-11T18:06:50.288Z,3.70
2018-09-11T18:09:18.434Z,3.67
2018-09-11T18:11:46.268Z,3.60
2018-09-11T18:14:14.127Z,3.30
2018-09-11T18:16:41.962Z,3.63
2018-09-11T18:19:09.838Z,3.40
2018-09-11T18:21:37.670Z,4.03
2018-09-11T18:24:05.504Z,3.43
2018-09-11T18:26:33.338Z,3.70
2018-09-11T18:29:01.535Z,3.77
2018-09-11T18:31:29.386Z,3.87
2018-09-11T18:33:57.272Z,4.57
2018-09-11T18:36:25.225Z,17.30
2018-09-11T18:38:53.103Z,17.03
2018-09-11T18:41:20.993Z,22.70
2018-09-11T18:43:49.137Z,15.87
2018-09-11T18:46:16.989Z,12.97
2018-09-11T18:48:44.830Z,9.37
2018-09-11T18:51:12.700Z,7.30
2018-09-11T18:53:40.546Z,6.47
2018-09-11T18:56:08.376Z,7.77
2018-09-11T18:58:36.263Z,10.83
2018-09-11T19:01:04.159Z,9.20
2018-09-11T19:03:32.050Z,7.40
2018-09-11T19:05:59.881Z,6.87
2018-09-11T19:08:27.744Z,7.13
2018-09-11T19:10:55.724Z,6.20
2018-09-11T19:13:23.693Z,6.00
2018-09-11T19:15:51.647Z,5.77
2018-09-11T19:18:19.504Z,5.60
2018-09-11T19:20:47.359Z,5.00
2018-09-11T19:23:15.216Z,5.63
2018-09-11T19:25:43.075Z,4.50
2018-09-11T19:28:10.907Z,4.73
2018-09-11T19:30:38.755Z,5.03
2018-09-11T19:33:07.182Z,5.00
2018-09-11T19:35:35.059Z,5.57
2018-09-11T19:38:02.928Z,5.17
2018-09-11T19:40:30.780Z,5.13
2018-09-11T19:42:58.707Z,5.23
2018-09-11T19:45:26.547Z,4.97
2018-09-11T19:47:54.375Z,5.93
2018-09-11T19:50:22.266Z,4.63
2018-09-11T19:52:50.117Z,5.77
2018-09-11T19:55:17.960Z,6.43
2018-09-11T19:57:45.921Z,7.33
2018-09-11T20:00:13.798Z,7.63
2018-09-11T20:02:41.643Z,7.43
2018-09-11T20:05:09.538Z,10.10
2018-09-11T20:07:37.400Z,10.10
2018-09-11T20:10:05.286Z,10.23
2018-09-11T20:12:33.147Z,9.70
2018-09-11T20:15:01.090Z,8.43
2018-09-11T20:17:28.941Z,8.43
2018-09-11T20:19:56.791Z,9.00
2018-09-11T20:22:24.648Z,9.43
2018-09-11T20:24:52.485Z,9.47
2018-09-11T20:27:20.319Z,11.87
2018-09-11T20:29:48.175Z,12.60
2018-09-11T20:32:16.014Z,14.17
2018-09-11T20:34:43.990Z,14.40
2018-09-11T20:37:12.262Z,10.83
2018-09-11T20:39:40.111Z,11.77
2018-09-11T20:42:08.122Z,9.57
2018-09-11T20:44:36.059Z,8.87
2018-09-11T20:47:04.007Z,9.20
2018-09-11T20:49:32.248Z,7.73
2018-09-11T20:52:00.079Z,10.60
2018-09-11T20:54:27.928Z,14.23
2018-09-11T20:56:55.779Z,15.03
2018-09-11T20:59:23.633Z,12.07
2018-09-11T21:01:51.475Z,11.63
2018-09-11T21:04:19.295Z,9.17
2018-09-11T21:06:47.135Z,7.73
2018-09-11T21:09:15.035Z,6.37
2018-09-11T21:11:42.876Z,6.70
2018-09-11T21:14:10.702Z,6.90
2018-09-11T21:16:38.557Z,5.50
2018-09-11T21:19:06.405Z,5.97
2018-09-11T21:21:34.267Z,5.43
2018-09-11T21:24:02.169Z,4.97
2018-09-11T21:26:30.038Z,5.23
2018-09-11T21:28:57.893Z,5.90
2018-09-11T21:31:25.903Z,6.03
2018-09-11T21:33:53.726Z,5.57
2018-09-11T21:36:21.657Z,4.93
2018-09-11T21:38:49.595Z,4.93
2018-09-11T21:41:17.589Z,5.60
2018-09-11T21:43:45.471Z,5.67
2018-09-11T21:46:13.358Z,5.53
2018-09-11T21:48:41.221Z,6.30
2018-09-11T21:51:09.093Z,6.40
2018-09-11T21:53:36.931Z,6.03
2018-09-11T21:56:04.777Z,5.83
2018-09-11T21:58:32.623Z,5.30
2018-09-11T22:01:06.659Z,6.13
2018-09-11T22:03:34.490Z,5.90
2018-09-11T22:06:02.444Z,5.87
2018-09-11T22:08:30.394Z,5.60
2018-09-11T22:10:58.335Z,6.07
2018-09-11T22:13:26.336Z,5.83
2018-09-11T22:15:54.185Z,5.23
2018-09-11T22:18:22.035Z,5.23
2018-09-11T22:20:50.025Z,6.13
2018-09-11T22:23:17.971Z,6.00
2018-09-11T22:25:45.797Z,5.90
2018-09-11T22:28:13.660Z,5.97
2018-09-11T22:30:41.511Z,5.73
2018-09-11T22:33:09.508Z,5.57
2018-09-11T22:35:37.334Z,5.00
2018-09-11T22:38:05.255Z,5.13
2018-09-11T22:40:33.315Z,5.43
2018-09-11T22:43:01.217Z,5.80
2018-09-11T22:45:30.394Z,5.13
2018-09-11T22:47:58.238Z,5.50
2018-09-11T22:50:26.183Z,5.57
2018-09-11T22:52:54.028Z,5.33
2018-09-11T22:55:22.015Z,5.63
2018-09-11T22:57:49.832Z,5.87
2018-09-11T23:00:17.695Z,6.17
2018-09-11T23:02:45.735Z,6.00
2018-09-11T23:05:13.600Z,5.47
2018-09-11T23:07:41.667Z,5.93
2018-09-11T23:10:09.607Z,4.87
2018-09-11T23:12:37.438Z,5.20
2018-09-11T23:15:05.319Z,5.57
2018-09-11T23:17:33.715Z,5.73
2018-09-11T23:20:01.555Z,5.27
2018-09-11T23:22:29.402Z,5.10
2018-09-11T23:24:57.248Z,5.23
2018-09-11T23:27:25.076Z,5.43
2018-09-11T23:29:52.934Z,4.87
2018-09-11T23:32:20.777Z,5.07
2018-09-11T23:34:48.594Z,5.47
2018-09-11T23:37:16.489Z,5.03
2018-09-11T23:39:44.427Z,4.83
2018-09-11T23:42:12.255Z,5.20
2018-09-11T23:44:40.109Z,4.70
2018-09-11T23:47:07.971Z,5.03
2018-09-11T23:49:36.348Z,5.00
2018-09-11T23:52:04.193Z,4.03
2018-09-11T23:54:32.020Z,4.23
2018-09-11T23:56:59.860Z,4.57
2018-09-11T23:59:27.689Z,4.73
